ΕΜΥ, Εθνική Μετεωρολογική Υπηρεσία - Δελτία Καιρού, Προγνώσεις

ΑΕΡΟΝΑΥΤΙΛΙΑ

GREEK AIRPORTS CODES

LGAV 071420Z 16006KT 9999 SCT020 16/09 Q1015 RMK SCT080 FEW180 NOSIG=

EUROPEAN AIRPORTS CODES

LFPO 071430Z 33005KT 9999 SCT017 06/03 Q1018 NOSIG=